Time;durP1;ratioP1;P1;durP2;ratioP2;P2;SDS_P1;SDS_P2;PMS_P1;PMS_P2;Temp;Humidity;BMP_temperature;BMP_pressure;BME280_temperature;BME280_humidity;BME280_pressure;Samples;Min_cycle;Max_cycle;Signal;HPM_P1;HPM_P2
2022/08/29 00:01:35;;;;;;;9.35;4.05;;;15.60;99.90;;;;;;5066314;28;20143;-43
2022/08/29 00:04:01;;;;;;;10.45;4.22;;;15.60;99.90;;;;;;5074783;28;20079;-46
2022/08/29 00:06:28;;;;;;;8.98;3.92;;;15.60;99.90;;;;;;5070007;28;20518;-44
2022/08/29 00:08:54;;;;;;;9.52;3.72;;;15.60;99.90;;;;;;5067143;28;20051;-43
2022/08/29 00:11:20;;;;;;;9.55;3.63;;;15.60;99.90;;;;;;5055528;28;20036;-41
2022/08/29 00:13:47;;;;;;;7.10;3.38;;;15.60;99.90;;;;;;5071798;28;20055;-42
2022/08/29 00:16:13;;;;;;;6.63;3.45;;;15.60;99.90;;;;;;5072942;28;20757;-43
2022/08/29 00:18:40;;;;;;;9.05;4.15;;;15.50;99.90;;;;;;5081695;28;20048;-45
2022/08/29 00:21:06;;;;;;;7.78;3.70;;;15.50;99.90;;;;;;5054451;28;20392;-46
2022/08/29 00:23:32;;;;;;;8.15;4.38;;;15.50;99.90;;;;;;5042298;28;20525;-60
2022/08/29 00:25:58;;;;;;;10.02;4.10;;;15.50;99.90;;;;;;5055693;28;20051;-57
2022/08/29 00:28:24;;;;;;;10.00;3.45;;;15.50;99.90;;;;;;5073006;28;20048;-57
2022/08/29 00:30:51;;;;;;;7.38;3.95;;;15.50;99.90;;;;;;5075307;28;20116;-57
2022/08/29 00:33:17;;;;;;;9.20;4.47;;;15.40;99.90;;;;;;5083152;27;20048;-64
2022/08/29 00:35:45;;;;;;;8.07;4.00;;;15.40;99.90;;;;;;5073298;28;20570;-57
2022/08/29 00:38:15;;;;;;;7.95;3.92;;;15.40;99.90;;;;;;5076607;28;20483;-57
2022/08/29 00:40:45;;;;;;;5.60;3.83;;;15.40;99.90;;;;;;5076735;28;20735;-56
2022/08/29 00:43:11;;;;;;;8.60;3.83;;;15.40;99.90;;;;;;5069589;28;20048;-44
2022/08/29 00:45:45;;;;;;;9.48;4.25;;;15.50;99.90;;;;;;5069255;28;20068;-56
2022/08/29 00:48:13;;;;;;;8.82;4.15;;;15.40;99.90;;;;;;5071453;28;20453;-48
2022/08/29 00:50:46;;;;;;;9.82;3.90;;;15.50;99.90;;;;;;5071038;28;20493;-44
2022/08/29 00:53:16;;;;;;;7.68;4.25;;;15.50;99.90;;;;;;5076999;28;20039;-43
2022/08/29 00:55:45;;;;;;;8.68;3.97;;;15.50;99.90;;;;;;5071850;28;20070;-44
2022/08/29 00:58:17;;;;;;;8.93;3.92;;;15.50;99.90;;;;;;5054187;28;20110;-42
2022/08/29 01:00:43;;;;;;;;;;;15.50;99.90;;;;;;5068857;28;20055;-42
2022/08/29 01:03:09;;;;;;;9.93;4.78;;;15.40;99.90;;;;;;5074754;28;20204;-43
2022/08/29 01:05:36;;;;;;;9.55;4.40;;;15.40;99.90;;;;;;5054965;28;20134;-45
2022/08/29 01:08:03;;;;;;;10.32;4.45;;;15.40;99.90;;;;;;5082047;28;20092;-45
2022/08/29 01:13:14;;;;;;;7.93;3.83;;;15.50;99.90;;;;;;5072006;28;20051;-44
2022/08/29 01:15:43;;;;;;;9.10;4.07;;;15.50;99.90;;;;;;5074358;28;20394;-43
2022/08/29 01:18:11;;;;;;;9.38;4.38;;;15.50;99.90;;;;;;5069276;28;20124;-48
2022/08/29 01:20:56;;;;;;;9.32;4.30;;;15.50;99.90;;;;;;5076663;28;20635;-56
2022/08/29 01:23:54;;;;;;;9.88;4.40;;;15.50;99.90;;;;;;5070815;28;20055;-58
2022/08/29 01:26:21;;;;;;;9.27;4.18;;;15.50;99.90;;;;;;5071559;28;20545;-57
2022/08/29 01:28:50;;;;;;;9.60;4.35;;;15.40;99.90;;;;;;5050130;28;20178;-57
2022/08/29 01:31:23;;;;;;;9.10;4.30;;;15.50;99.90;;;;;;5074971;28;20054;-58
2022/08/29 01:33:56;;;;;;;11.30;5.15;;;15.50;99.90;;;;;;5068454;28;20888;-48
2022/08/29 01:36:27;;;;;;;8.07;4.15;;;15.50;99.90;;;;;;5067760;28;20047;-45
2022/08/29 01:38:53;;;;;;;9.05;4.35;;;15.60;99.90;;;;;;5073485;28;20626;-44
2022/08/29 01:41:21;;;;;;;8.95;3.75;;;15.60;99.90;;;;;;5073843;28;20051;-46
2022/08/29 01:43:50;;;;;;;10.68;4.32;;;15.60;99.90;;;;;;5040680;28;20059;-42
2022/08/29 01:46:20;;;;;;;10.77;4.45;;;15.60;99.90;;;;;;5071499;28;20044;-57
2022/08/29 01:48:47;;;;;;;8.00;4.60;;;15.70;99.90;;;;;;5071289;28;20352;-57
2022/08/29 01:51:14;;;;;;;9.15;4.82;;;15.70;99.90;;;;;;5056871;28;20059;-57
2022/08/29 01:53:41;;;;;;;8.27;4.60;;;15.70;99.90;;;;;;5073322;28;20043;-57
2022/08/29 01:56:15;;;;;;;7.38;4.70;;;15.70;99.90;;;;;;5066502;28;20056;-56
2022/08/29 01:58:43;;;;;;;7.85;4.40;;;15.70;99.90;;;;;;5053199;28;20040;-56
2022/08/29 02:01:10;;;;;;;8.38;3.85;;;15.70;99.90;;;;;;5069174;28;20054;-57
2022/08/29 02:03:37;;;;;;;11.30;4.78;;;15.70;99.90;;;;;;5070556;28;20258;-41
2022/08/29 02:06:04;;;;;;;8.90;4.88;;;15.70;99.90;;;;;;5073816;28;20046;-45
2022/08/29 02:08:30;;;;;;;8.30;4.55;;;15.70;99.90;;;;;;5064727;28;20052;-43
2022/08/29 02:10:57;;;;;;;9.00;4.68;;;15.70;99.90;;;;;;5075129;28;20116;-57
2022/08/29 02:13:24;;;;;;;8.65;4.53;;;15.70;99.90;;;;;;5089944;28;20132;-42
2022/08/29 02:15:50;;;;;;;12.52;4.68;;;15.70;99.90;;;;;;5071027;28;20129;-50
2022/08/29 02:18:17;;;;;;;8.38;4.30;;;15.70;99.90;;;;;;5073709;28;20044;-43
2022/08/29 02:20:45;;;;;;;7.15;4.40;;;15.70;99.90;;;;;;5038484;28;20571;-44
2022/08/29 02:23:11;;;;;;;9.10;4.35;;;15.70;99.90;;;;;;5070315;28;20129;-42
2022/08/29 02:25:41;;;;;;;7.55;4.25;;;15.70;99.90;;;;;;5072102;28;20416;-44
2022/08/29 02:28:12;;;;;;;9.75;4.38;;;15.60;99.90;;;;;;5071111;28;20695;-43
2022/08/29 02:30:40;;;;;;;9.47;4.23;;;15.60;99.90;;;;;;5065562;28;20048;-42
2022/08/29 02:33:07;;;;;;;9.25;4.25;;;15.70;99.90;;;;;;5051476;28;20080;-45
2022/08/29 02:35:33;;;;;;;9.60;4.05;;;15.60;99.90;;;;;;5071966;28;20052;-42
2022/08/29 02:38:00;;;;;;;7.75;4.22;;;15.60;99.90;;;;;;5084438;28;20131;-42
2022/08/29 02:40:27;;;;;;;9.35;4.50;;;15.60;99.90;;;;;;5069146;28;20499;-44
2022/08/29 02:42:55;;;;;;;10.13;4.28;;;15.50;99.90;;;;;;5089961;28;20052;-45
2022/08/29 02:45:22;;;;;;;8.70;4.38;;;15.60;99.90;;;;;;5076087;28;20044;-44
2022/08/29 02:47:48;;;;;;;7.53;4.15;;;15.60;99.90;;;;;;5089000;28;20048;-57
2022/08/29 02:50:15;;;;;;;10.30;4.03;;;15.60;99.90;;;;;;5075104;28;20448;-56
2022/08/29 02:52:42;;;;;;;16.15;5.38;;;15.50;99.90;;;;;;5069454;28;20404;-56
2022/08/29 02:55:15;;;;;;;9.73;4.63;;;15.50;99.90;;;;;;5072904;28;20139;-43
2022/08/29 02:57:42;;;;;;;10.23;5.07;;;15.50;99.90;;;;;;5074708;28;20075;-57
2022/08/29 03:00:15;;;;;;;12.50;5.13;;;15.50;99.90;;;;;;5072250;28;20040;-57
2022/08/29 03:02:43;;;;;;;7.65;4.30;;;15.50;99.90;;;;;;5072961;28;20434;-58
2022/08/29 03:05:09;;;;;;;9.30;4.45;;;15.50;99.90;;;;;;5076251;28;20506;-44
2022/08/29 03:07:35;;;;;;;8.40;4.65;;;15.50;99.90;;;;;;5092010;28;20059;-42
2022/08/29 03:10:03;;;;;;;8.82;4.32;;;15.50;99.90;;;;;;5077463;28;20129;-50
2022/08/29 03:12:29;;;;;;;8.75;5.00;;;15.50;99.90;;;;;;5076721;28;20044;-44
2022/08/29 03:14:55;;;;;;;9.77;5.00;;;15.50;99.90;;;;;;5076258;28;20836;-45
2022/08/29 03:17:21;;;;;;;8.88;4.68;;;15.50;99.90;;;;;;5073260;28;20046;-55
2022/08/29 03:19:47;;;;;;;8.15;4.60;;;15.50;99.90;;;;;;5089287;28;20040;-55
2022/08/29 03:22:14;;;;;;;9.05;4.65;;;15.50;99.90;;;;;;5074807;28;20109;-56
2022/08/29 03:24:40;;;;;;;9.88;5.05;;;15.50;99.90;;;;;;5076314;28;20040;-44
2022/08/29 03:27:06;;;;;;;8.85;4.50;;;15.50;99.90;;;;;;5058745;28;20890;-42
2022/08/29 03:29:32;;;;;;;9.90;5.38;;;15.50;99.90;;;;;;5075204;28;20049;-46
2022/08/29 03:31:59;;;;;;;10.73;4.78;;;15.50;99.90;;;;;;5091045;28;20075;-45
2022/08/29 03:34:27;;;;;;;9.23;4.68;;;15.50;99.90;;;;;;5056826;28;20048;-44
2022/08/29 03:36:54;;;;;;;10.32;4.30;;;15.40;99.90;;;;;;5093514;27;20051;-46
2022/08/29 03:39:20;;;;;;;9.50;5.15;;;15.50;99.90;;;;;;5078828;28;20055;-43
2022/08/29 03:41:46;;;;;;;11.32;4.53;;;15.50;99.90;;;;;;5066472;28;20044;-43
2022/08/29 03:44:12;;;;;;;12.02;4.55;;;15.50;99.90;;;;;;5072047;28;20074;-42
2022/08/29 03:46:39;;;;;;;8.77;4.10;;;15.50;99.90;;;;;;5077236;28;20036;-44
2022/08/29 03:49:06;;;;;;;8.43;4.15;;;15.50;99.90;;;;;;5043947;28;20598;-45
2022/08/29 03:51:38;;;;;;;9.15;4.22;;;15.50;99.90;;;;;;5073842;28;20043;-56
2022/08/29 03:54:05;;;;;;;11.63;4.60;;;15.50;99.90;;;;;;5078245;28;20047;-57
2022/08/29 03:56:32;;;;;;;8.32;4.15;;;15.50;99.90;;;;;;5070279;28;20044;-57
2022/08/29 03:58:58;;;;;;;9.25;4.13;;;15.40;99.90;;;;;;5078321;28;20043;-57
2022/08/29 04:01:27;;;;;;;12.52;4.75;;;15.40;99.90;;;;;;5092873;28;20072;-42
2022/08/29 04:03:55;;;;;;;9.52;4.70;;;15.40;99.90;;;;;;5090555;27;20052;-43
2022/08/29 04:06:22;;;;;;;7.25;4.25;;;15.50;99.90;;;;;;5073486;28;20044;-46
2022/08/29 04:08:50;;;;;;;12.18;4.60;;;15.50;99.90;;;;;;5057057;28;20044;-45
2022/08/29 04:11:18;;;;;;;9.07;3.80;;;15.40;99.90;;;;;;5072797;28;20491;-44
2022/08/29 04:13:46;;;;;;;8.95;4.65;;;15.40;99.90;;;;;;5037284;28;20040;-46
2022/08/29 04:16:22;;;;;;;8.00;4.35;;;15.40;99.90;;;;;;5053113;28;20067;-47
2022/08/29 04:18:49;;;;;;;7.25;4.18;;;15.40;99.90;;;;;;5072957;28;20122;-42
2022/08/29 04:21:17;;;;;;;10.05;4.47;;;15.40;99.90;;;;;;5079601;28;20051;-47
2022/08/29 04:23:48;;;;;;;7.55;4.22;;;15.40;99.90;;;;;;5076039;28;20080;-43
2022/08/29 04:26:17;;;;;;;9.30;4.18;;;15.40;99.90;;;;;;5076296;28;20539;-47
2022/08/29 04:28:44;;;;;;;8.85;4.10;;;15.30;99.90;;;;;;5074081;28;20594;-45
2022/08/29 04:31:20;;;;;;;8.30;4.05;;;15.30;99.90;;;;;;5092041;27;20190;-56
2022/08/29 04:33:48;;;;;;;10.70;4.15;;;15.30;99.90;;;;;;5074688;28;20420;-57
2022/08/29 04:36:15;;;;;;;12.40;4.80;;;15.20;99.90;;;;;;5090416;28;20459;-57
2022/08/29 04:38:41;;;;;;;9.55;4.20;;;15.20;99.90;;;;;;5072457;28;20470;-56
2022/08/29 04:41:13;;;;;;;8.77;4.60;;;15.10;99.90;;;;;;5087578;27;20052;-52
2022/08/29 04:43:45;;;;;;;9.30;4.20;;;15.10;99.90;;;;;;5073371;28;20052;-57
2022/08/29 04:46:13;;;;;;;8.82;4.28;;;15.10;99.90;;;;;;5076501;28;20040;-43
2022/08/29 04:48:40;;;;;;;13.57;4.88;;;15.10;99.90;;;;;;5071958;28;20049;-43
2022/08/29 04:51:06;;;;;;;8.23;4.30;;;15.10;99.90;;;;;;5072167;28;20514;-43
2022/08/29 04:53:32;;;;;;;10.07;3.95;;;15.10;99.90;;;;;;5070034;28;20051;-45
2022/08/29 04:56:00;;;;;;;12.18;4.60;;;15.10;99.90;;;;;;5065086;28;20051;-43
2022/08/29 04:58:27;;;;;;;9.70;4.43;;;15.10;99.90;;;;;;5075571;28;20169;-42
2022/08/29 05:00:54;;;;;;;13.75;5.22;;;15.10;99.90;;;;;;5071838;28;20051;-45
2022/08/29 05:03:22;;;;;;;9.18;4.03;;;15.10;99.90;;;;;;5072496;28;20055;-44
2022/08/29 05:05:56;;;;;;;10.40;4.22;;;15.10;99.90;;;;;;5078958;28;20098;-43
2022/08/29 05:08:23;;;;;;;10.27;3.92;;;15.10;99.90;;;;;;5086463;28;20040;-55
2022/08/29 05:10:49;;;;;;;8.35;4.35;;;15.10;99.90;;;;;;5072826;28;20048;-48
2022/08/29 05:13:16;;;;;;;10.02;4.57;;;15.10;99.90;;;;;;5048959;28;20055;-44
2022/08/29 05:15:42;;;;;;;11.35;4.78;;;15.10;99.90;;;;;;5073293;28;20044;-43
2022/08/29 05:18:08;;;;;;;9.05;4.50;;;15.10;99.90;;;;;;5082349;28;20226;-44
2022/08/29 05:20:41;;;;;;;8.68;4.35;;;15.10;99.90;;;;;;5072990;28;20051;-45
2022/08/29 05:23:11;;;;;;;8.57;4.20;;;15.20;99.90;;;;;;5076655;28;20040;-56
2022/08/29 05:25:38;;;;;;;11.63;4.22;;;15.20;99.90;;;;;;5078666;28;20080;-57
2022/08/29 05:28:04;;;;;;;9.82;5.30;;;15.20;99.90;;;;;;5078443;28;20047;-57
2022/08/29 05:30:31;;;;;;;10.88;5.03;;;15.30;99.90;;;;;;5075479;28;20113;-58
2022/08/29 05:32:58;;;;;;;9.02;4.35;;;15.40;99.90;;;;;;5084796;28;20044;-58
2022/08/29 05:35:25;;;;;;;9.80;4.25;;;15.40;99.90;;;;;;5075713;28;20083;-56
2022/08/29 05:37:51;;;;;;;10.55;4.60;;;15.50;99.90;;;;;;5073327;28;20044;-57
2022/08/29 05:40:19;;;;;;;9.75;3.85;;;15.60;99.90;;;;;;5080697;28;20573;-57
2022/08/29 05:42:45;;;;;;;7.63;4.13;;;15.60;99.90;;;;;;5075401;28;20176;-57
2022/08/29 05:45:12;;;;;;;8.90;5.18;;;15.60;99.90;;;;;;5091751;28;20040;-46
2022/08/29 05:47:38;;;;;;;9.32;3.90;;;15.70;99.90;;;;;;5054569;28;20075;-50
2022/08/29 05:50:06;;;;;;;7.82;3.97;;;15.80;99.90;;;;;;5088097;28;20487;-57
2022/08/29 05:52:33;;;;;;;8.63;4.93;;;15.80;99.90;;;;;;5087602;27;20044;-57
2022/08/29 05:55:00;;;;;;;10.05;4.28;;;15.90;99.90;;;;;;5070521;28;20932;-55
2022/08/29 05:57:26;;;;;;;8.02;4.45;;;15.90;99.90;;;;;;5068571;28;20600;-43
2022/08/29 05:59:53;;;;;;;8.25;4.40;;;15.90;99.90;;;;;;5067638;28;20506;-43
2022/08/29 06:02:21;;;;;;;10.30;4.65;;;16.10;99.90;;;;;;5072097;28;20709;-44
2022/08/29 06:04:48;;;;;;;8.93;4.07;;;16.10;99.90;;;;;;5073203;28;20474;-44
2022/08/29 06:07:14;;;;;;;10.63;4.38;;;16.20;99.90;;;;;;5070576;28;20044;-46
2022/08/29 06:09:42;;;;;;;12.55;5.13;;;16.20;99.90;;;;;;5072148;28;20054;-46
2022/08/29 06:12:10;;;;;;;9.02;3.78;;;16.30;99.90;;;;;;5079130;28;20470;-56
2022/08/29 06:14:36;;;;;;;7.53;3.67;;;16.40;99.90;;;;;;5075685;28;20074;-56
2022/08/29 06:17:04;;;;;;;10.60;4.15;;;16.50;99.90;;;;;;5058390;28;20397;-56
2022/08/29 06:19:33;;;;;;;11.38;4.22;;;16.60;99.90;;;;;;5073093;28;20158;-43
2022/08/29 06:22:04;;;;;;;8.23;3.58;;;16.70;99.90;;;;;;5070071;28;20078;-45
2022/08/29 06:24:31;;;;;;;8.88;4.18;;;16.70;99.90;;;;;;5087526;28;20075;-55
2022/08/29 06:26:58;;;;;;;11.38;3.60;;;16.80;99.90;;;;;;5095801;28;20058;-55
2022/08/29 06:29:25;;;;;;;9.50;4.05;;;16.90;99.90;;;;;;5078811;28;20032;-46
2022/08/29 06:31:54;;;;;;;10.05;3.90;;;16.90;99.90;;;;;;5040567;28;20444;-45
2022/08/29 06:34:20;;;;;;;9.02;3.63;;;17.00;99.90;;;;;;5059689;28;20557;-44
2022/08/29 06:36:46;;;;;;;7.63;3.67;;;17.00;99.90;;;;;;5072851;28;20037;-46
2022/08/29 06:39:12;;;;;;;9.55;3.80;;;17.10;99.90;;;;;;5076428;28;20043;-50
2022/08/29 06:41:40;;;;;;;12.40;4.00;;;17.00;99.90;;;;;;5076705;28;20047;-44
2022/08/29 06:44:07;;;;;;;8.32;3.40;;;17.00;99.90;;;;;;5057013;28;20513;-46
2022/08/29 06:46:37;;;;;;;7.35;3.65;;;17.10;99.90;;;;;;5072539;28;20163;-43
2022/08/29 06:49:07;;;;;;;8.23;3.85;;;17.20;99.90;;;;;;5073225;28;20878;-45
2022/08/29 06:51:36;;;;;;;8.95;3.72;;;17.40;99.90;;;;;;5081217;28;20566;-58
2022/08/29 06:54:05;;;;;;;8.90;4.13;;;17.50;99.90;;;;;;5082005;28;20707;-58
2022/08/29 06:56:32;;;;;;;8.45;3.25;;;17.70;99.90;;;;;;5079459;28;20051;-57
2022/08/29 06:58:58;;;;;;;8.02;3.33;;;17.90;99.90;;;;;;5081749;28;20298;-44
2022/08/29 07:01:24;;;;;;;6.10;2.40;;;18.00;99.90;;;;;;5075478;28;20499;-45
2022/08/29 07:03:55;;;;;;;6.05;2.47;;;18.10;99.90;;;;;;5077578;28;20426;-43
2022/08/29 07:06:22;;;;;;;10.27;3.20;;;18.20;99.90;;;;;;5056726;28;20561;-46
2022/08/29 07:08:49;;;;;;;7.32;2.25;;;18.30;99.90;;;;;;5082628;28;20306;-52
2022/08/29 07:11:16;;;;;;;9.05;2.78;;;18.50;99.90;;;;;;5088387;28;20567;-60
2022/08/29 07:13:42;;;;;;;9.45;2.55;;;18.70;99.90;;;;;;5051199;28;20403;-43
2022/08/29 07:16:10;;;;;;;8.73;2.90;;;18.80;99.90;;;;;;5067848;28;20557;-44
2022/08/29 07:18:36;;;;;;;7.25;2.45;;;18.90;99.90;;;;;;5076457;28;20114;-43
2022/08/29 07:21:07;;;;;;;11.48;2.67;;;19.00;99.90;;;;;;5045061;28;20546;-46
2022/08/29 07:23:34;;;;;;;6.28;2.58;;;19.00;99.90;;;;;;5077628;28;20441;-57
2022/08/29 07:26:12;;;;;;;6.22;2.35;;;19.00;99.90;;;;;;5065175;28;20043;-56
2022/08/29 07:28:39;;;;;;;7.90;2.60;;;19.00;99.90;;;;;;5094718;28;20112;-56
2022/08/29 07:31:05;;;;;;;6.38;2.42;;;19.00;99.90;;;;;;5078659;28;20687;-55
2022/08/29 07:33:32;;;;;;;7.82;3.30;;;19.10;99.90;;;;;;5091231;28;20055;-55
2022/08/29 07:35:59;;;;;;;9.20;4.68;;;19.20;99.90;;;;;;5055192;28;20052;-45
2022/08/29 07:38:27;;;;;;;7.13;2.70;;;19.20;99.90;;;;;;5074781;28;20123;-56
2022/08/29 07:41:01;;;;;;;9.02;2.47;;;19.30;99.90;;;;;;5081477;28;20044;-58
2022/08/29 07:43:28;;;;;;;11.88;5.82;;;19.30;99.90;;;;;;5062448;28;20086;-57
2022/08/29 07:45:54;;;;;;;11.00;4.63;;;19.60;99.90;;;;;;5075823;28;20044;-46
2022/08/29 07:48:21;;;;;;;8.80;3.90;;;19.80;99.90;;;;;;5073975;28;20148;-44
2022/08/29 07:50:48;;;;;;;14.52;5.53;;;19.90;99.90;;;;;;5071853;28;20593;-49
2022/08/29 07:53:15;;;;;;;8.80;2.40;;;19.90;99.90;;;;;;5071572;28;20044;-43
2022/08/29 07:55:42;;;;;;;8.63;2.53;;;19.80;99.90;;;;;;5073305;28;20131;-45
2022/08/29 07:58:08;;;;;;;8.23;2.88;;;19.80;99.90;;;;;;5077022;28;20059;-58
2022/08/29 08:00:34;;;;;;;5.50;2.03;;;19.90;99.90;;;;;;5079468;28;20517;-55
2022/08/29 08:03:00;;;;;;;10.00;4.05;;;19.90;99.90;;;;;;5075247;28;20415;-44
2022/08/29 08:05:26;;;;;;;11.65;5.95;;;20.00;99.90;;;;;;5068041;28;20495;-45
2022/08/29 08:07:53;;;;;;;7.28;3.70;;;20.20;99.90;;;;;;5071639;28;20049;-43
2022/08/29 08:10:19;;;;;;;10.10;3.05;;;20.20;99.90;;;;;;5075526;28;20048;-46
2022/08/29 08:12:46;;;;;;;9.95;3.33;;;20.20;99.90;;;;;;5097781;28;20051;-57
2022/08/29 08:15:15;;;;;;;8.80;2.72;;;20.20;99.90;;;;;;5082989;28;20107;-57
2022/08/29 08:17:42;;;;;;;10.13;3.92;;;20.40;99.90;;;;;;5079002;28;20131;-59
2022/08/29 08:20:09;;;;;;;9.88;3.88;;;20.40;99.90;;;;;;5085037;28;20040;-56
2022/08/29 08:22:36;;;;;;;10.80;2.80;;;20.40;99.90;;;;;;5075986;28;20045;-56
2022/08/29 08:25:05;;;;;;;10.88;3.03;;;20.60;99.90;;;;;;5079559;28;20050;-57
2022/08/29 08:27:31;;;;;;;10.43;7.13;;;20.60;99.90;;;;;;5093980;28;20044;-58
2022/08/29 08:29:58;;;;;;;15.70;3.95;;;20.70;99.90;;;;;;5078591;28;20562;-48
2022/08/29 08:32:24;;;;;;;10.70;4.32;;;20.90;99.90;;;;;;5070848;28;20044;-50
2022/08/29 08:34:50;;;;;;;11.85;4.38;;;21.10;99.90;;;;;;5088285;27;20081;-44
2022/08/29 08:37:17;;;;;;;10.60;4.30;;;21.20;99.90;;;;;;5074363;28;20132;-57
2022/08/29 08:39:43;;;;;;;6.82;2.60;;;21.50;99.90;;;;;;5073883;28;20083;-43
2022/08/29 08:42:27;;;;;;;11.73;5.85;;;21.80;99.90;;;;;;5075564;28;20048;-44
2022/08/29 08:45:05;;;;;;;15.27;7.53;;;21.90;99.90;;;;;;5071248;28;20608;-47
2022/08/29 08:47:35;;;;;;;8.05;2.83;;;22.00;99.90;;;;;;5096622;28;20748;-59
2022/08/29 08:50:22;;;;;;;12.47;6.47;;;21.90;99.90;;;;;;5094894;28;20106;-45
2022/08/29 08:52:57;;;;;;;9.65;2.92;;;21.90;99.90;;;;;;5088951;27;20600;-45
2022/08/29 08:55:32;;;;;;;13.88;3.45;;;21.80;99.90;;;;;;5068870;28;20044;-44
2022/08/29 08:58:01;;;;;;;11.60;2.80;;;21.60;99.90;;;;;;5075143;28;20052;-45
2022/08/29 09:00:34;;;;;;;7.63;2.58;;;21.60;99.90;;;;;;5073835;28;20210;-45
2022/08/29 09:03:14;;;;;;;8.32;3.33;;;21.40;99.90;;;;;;5070111;28;20499;-46
2022/08/29 09:05:55;;;;;;;7.82;2.78;;;21.50;99.90;;;;;;5069490;28;20650;-45
2022/08/29 09:08:56;;;;;;;9.23;3.13;;;21.60;99.90;;;;;;5068237;28;20052;-43
2022/08/29 09:11:46;;;;;;;8.50;3.08;;;21.70;99.90;;;;;;5059410;28;20049;-45
2022/08/29 09:14:42;;;;;;;9.82;3.72;;;21.80;99.90;;;;;;5067575;28;20918;-44
2022/08/29 09:17:19;;;;;;;10.20;3.20;;;21.60;99.90;;;;;;5084877;27;20057;-44
2022/08/29 09:19:47;;;;;;;13.23;8.10;;;21.80;99.90;;;;;;5068387;28;20488;-45
2022/08/29 09:22:25;;;;;;;7.18;2.88;;;21.80;99.90;;;;;;5076855;28;20044;-44
2022/08/29 09:25:04;;;;;;;10.63;3.20;;;21.80;99.90;;;;;;5075572;28;20053;-58
2022/08/29 09:27:33;;;;;;;10.13;3.00;;;22.10;99.90;;;;;;5075999;28;20342;-43
2022/08/29 09:30:11;;;;;;;9.30;2.88;;;22.30;99.90;;;;;;5071614;28;20063;-57
2022/08/29 09:32:55;;;;;;;6.35;2.38;;;22.40;99.90;;;;;;5068831;28;21015;-45
2022/08/29 09:35:30;;;;;;;7.15;2.70;;;22.70;99.90;;;;;;5068798;28;20048;-44
2022/08/29 09:38:05;;;;;;;8.68;2.50;;;22.90;99.90;;;;;;5073475;28;20476;-47
2022/08/29 09:41:00;;;;;;;10.07;3.00;;;23.00;99.90;;;;;;5072896;28;20043;-48
2022/08/29 09:43:38;;;;;;;8.23;2.38;;;23.30;99.90;;;;;;5065014;28;20200;-55
2022/08/29 09:46:10;;;;;;;9.45;2.67;;;23.50;99.90;;;;;;5089779;28;20120;-55
2022/08/29 09:48:39;;;;;;;7.75;2.83;;;23.80;99.90;;;;;;5070407;28;20052;-55
2022/08/29 09:51:08;;;;;;;8.82;2.85;;;24.40;99.90;;;;;;5069200;28;20075;-56
2022/08/29 09:53:35;;;;;;;9.82;2.58;;;24.70;99.90;;;;;;5071303;28;20050;-56
2022/08/29 09:56:14;;;;;;;10.10;2.55;;;24.60;99.90;;;;;;5070965;28;20044;-45
2022/08/29 09:58:41;;;;;;;9.10;2.63;;;25.00;99.90;;;;;;5071149;28;20137;-46
2022/08/29 10:01:17;;;;;;;8.93;3.10;;;25.70;99.90;;;;;;5066780;28;20100;-43
2022/08/29 10:03:53;;;;;;;7.55;2.50;;;26.40;99.90;;;;;;5072999;28;20052;-56
2022/08/29 10:06:30;;;;;;;8.55;2.67;;;26.10;99.90;;;;;;5070256;28;20070;-56
2022/08/29 10:09:01;;;;;;;7.68;2.83;;;25.60;99.90;;;;;;5072805;28;20122;-56
2022/08/29 10:11:33;;;;;;;;;;;25.20;99.90;;;;;;5073171;28;20139;-57
2022/08/29 10:14:28;;;;;;;8.38;2.42;;;25.40;99.90;;;;;;5071706;28;19930;-57
2022/08/29 10:19:52;;;;;;;10.40;2.67;;;25.90;99.90;;;;;;5071251;28;20492;-58
2022/08/29 10:22:37;;;;;;;7.90;2.58;;;26.10;99.90;;;;;;5083282;28;20047;-56
2022/08/29 10:25:19;;;;;;;6.72;2.20;;;26.20;99.90;;;;;;5073031;28;20052;-57
2022/08/29 10:27:55;;;;;;;6.85;2.65;;;26.00;99.90;;;;;;5070040;28;20048;-57
2022/08/29 10:30:43;;;;;;;8.13;2.60;;;25.80;99.90;;;;;;5070477;28;20049;-44
2022/08/29 10:33:09;;;;;;;11.98;2.95;;;25.50;99.90;;;;;;5053582;28;20316;-44
2022/08/29 10:35:42;;;;;;;8.48;2.72;;;25.20;99.90;;;;;;5069416;28;20078;-44
2022/08/29 10:38:37;;;;;;;6.93;2.97;;;24.80;99.90;;;;;;5086893;28;20051;-46
2022/08/29 10:41:25;;;;;;;7.50;2.67;;;24.30;99.90;;;;;;5054128;28;20201;-44
2022/08/29 10:44:06;;;;;;;9.63;3.10;;;24.10;99.90;;;;;;5070001;28;20385;-44
2022/08/29 10:46:59;;;;;;;9.73;3.13;;;24.30;99.90;;;;;;5071562;28;20967;-44
2022/08/29 10:49:54;;;;;;;10.85;3.22;;;24.20;99.90;;;;;;5065981;28;20526;-47
2022/08/29 10:52:20;;;;;;;8.77;3.63;;;24.10;99.90;;;;;;5079381;28;20051;-47
2022/08/29 10:55:28;;;;;;;9.23;2.72;;;24.10;99.90;;;;;;5067578;28;20056;-46
2022/08/29 10:58:05;;;;;;;7.50;3.15;;;24.10;99.90;;;;;;5070894;28;20454;-48
2022/08/29 11:00:43;;;;;;;6.88;3.05;;;23.80;99.90;;;;;;5083402;28;20137;-46
2022/08/29 11:03:40;;;;;;;8.57;3.28;;;23.50;99.90;;;;;;5033839;28;20113;-45
2022/08/29 11:06:09;;;;;;;8.15;3.47;;;23.40;99.90;;;;;;5067166;28;20186;-45
2022/08/29 11:09:16;;;;;;;8.82;4.10;;;23.10;99.90;;;;;;5074154;28;20040;-43
2022/08/29 11:12:09;;;;;;;8.77;3.63;;;23.00;99.90;;;;;;5047967;28;20131;-44
2022/08/29 11:14:58;;;;;;;9.55;3.78;;;22.80;99.90;;;;;;5070006;28;20056;-46
2022/08/29 11:17:33;;;;;;;17.77;11.80;;;22.70;99.90;;;;;;5073571;28;20048;-57
2022/08/29 11:20:23;;;;;;;14.18;7.07;;;22.50;99.90;;;;;;5069105;28;20082;-57
2022/08/29 11:23:14;;;;;;;16.00;7.85;;;22.20;99.90;;;;;;5087020;27;20266;-44
2022/08/29 11:25:42;;;;;;;10.20;4.80;;;22.00;99.90;;;;;;5076894;28;20417;-45
2022/08/29 11:28:08;;;;;;;17.90;13.10;;;22.00;99.90;;;;;;5070693;28;20485;-57
2022/08/29 11:30:43;;;;;;;18.63;10.85;;;21.90;99.90;;;;;;5074029;28;20047;-58
2022/08/29 11:33:42;;;;;;;17.42;11.82;;;22.00;99.90;;;;;;5071516;28;20166;-58
2022/08/29 11:36:11;;;;;;;11.75;6.22;;;21.80;99.90;;;;;;5067066;28;20044;-59
2022/08/29 11:38:58;;;;;;;14.30;6.82;;;21.70;99.90;;;;;;5074846;28;20107;-45
2022/08/29 11:41:31;;;;;;;14.90;8.10;;;21.80;99.90;;;;;;5071339;28;20055;-45
2022/08/29 11:44:06;;;;;;;12.32;7.03;;;22.00;99.90;;;;;;5089888;28;20197;-53
2022/08/29 11:46:39;;;;;;;10.63;7.95;;;22.10;99.90;;;;;;5056354;28;20462;-45
2022/08/29 11:49:39;;;;;;;11.13;4.38;;;22.20;99.90;;;;;;5078361;28;20491;-44
2022/08/29 11:52:09;;;;;;;13.48;7.85;;;22.30;99.90;;;;;;5054243;28;20147;-47
2022/08/29 11:54:38;;;;;;;10.60;3.90;;;22.40;99.90;;;;;;5073626;28;20613;-45
2022/08/29 11:57:04;;;;;;;11.98;3.80;;;22.50;99.90;;;;;;5072208;28;20050;-44
2022/08/29 11:59:49;;;;;;;12.85;8.20;;;22.60;99.90;;;;;;5072921;28;20338;-43
2022/08/29 12:02:27;;;;;;;12.43;6.35;;;22.70;99.90;;;;;;5086147;28;20601;-47
2022/08/29 12:05:27;;;;;;;12.00;4.95;;;22.80;99.90;;;;;;5084853;28;20499;-46
2022/08/29 12:07:57;;;;;;;14.63;8.43;;;23.00;99.90;;;;;;5069668;28;20723;-44
2022/08/29 12:10:27;;;;;;;9.15;3.85;;;23.30;99.90;;;;;;5073465;28;20602;-46
2022/08/29 12:13:05;;;;;;;10.73;4.15;;;23.30;99.90;;;;;;5074161;28;20051;-57
2022/08/29 12:15:31;;;;;;;11.13;4.18;;;23.60;99.90;;;;;;5056262;28;20083;-57
2022/08/29 12:17:59;;;;;;;14.40;4.55;;;23.70;99.90;;;;;;5076681;28;20059;-58
2022/08/29 12:20:34;;;;;;;12.65;7.38;;;23.70;99.90;;;;;;5070757;28;20497;-58
2022/08/29 12:23:04;;;;;;;8.95;4.43;;;23.80;99.90;;;;;;5069122;28;20090;-57
2022/08/29 12:25:43;;;;;;;7.82;3.15;;;23.90;99.90;;;;;;5088560;27;20454;-58
2022/08/29 12:28:26;;;;;;;9.45;3.22;;;24.30;99.90;;;;;;5071829;28;20398;-57
2022/08/29 12:31:23;;;;;;;11.65;5.80;;;24.60;99.90;;;;;;5071239;28;20777;-58
2022/08/29 12:34:20;;;;;;;8.80;4.85;;;25.10;99.90;;;;;;5070883;28;20070;-45
2022/08/29 12:37:32;;;;;;;5.82;3.28;;;25.20;99.90;;;;;;5068861;28;20044;-45
2022/08/29 12:40:20;;;;;;;10.13;4.63;;;25.10;99.90;;;;;;5046717;28;20051;-48
2022/08/29 12:42:59;;;;;;;10.30;3.40;;;24.80;99.90;;;;;;5073304;28;20051;-45
2022/08/29 12:45:27;;;;;;;11.32;3.28;;;25.10;99.90;;;;;;5071047;28;20055;-45
2022/08/29 12:47:57;;;;;;;9.30;3.28;;;24.90;99.90;;;;;;5071747;28;20407;-44
2022/08/29 12:50:34;;;;;;;10.20;3.90;;;24.80;99.90;;;;;;5069863;28;20059;-58
2022/08/29 12:53:14;;;;;;;9.80;3.38;;;25.00;99.90;;;;;;5056168;28;20071;-58
2022/08/29 12:55:43;;;;;;;19.00;12.00;;;25.30;99.90;;;;;;5076286;28;20056;-57
2022/08/29 12:58:12;;;;;;;12.32;7.60;;;25.90;99.90;;;;;;5084027;27;20082;-59
2022/08/29 13:00:40;;;;;;;9.32;3.63;;;25.90;99.90;;;;;;5069304;28;20044;-48
2022/08/29 13:03:25;;;;;;;10.18;3.08;;;25.70;99.90;;;;;;5073600;28;20145;-45
2022/08/29 13:06:03;;;;;;;8.48;5.60;;;25.50;99.90;;;;;;5070481;28;20043;-47
2022/08/29 13:08:32;;;;;;;8.82;3.50;;;25.20;99.90;;;;;;5073106;28;20104;-52
2022/08/29 13:11:06;;;;;;;11.02;4.53;;;25.00;99.90;;;;;;5071515;28;20044;-44